createdAt,value
2022-09-03T00:01:01.712Z,14.66
2022-09-03T00:08:44.507Z,14.54
2022-09-03T00:16:21.844Z,14.53
2022-09-03T00:23:58.939Z,14.42
2022-09-03T00:31:39.213Z,14.36
2022-09-03T00:39:16.969Z,14.36
2022-09-03T00:47:00.197Z,14.26
2022-09-03T00:54:47.693Z,14.26
2022-09-03T01:02:31.187Z,14.25
2022-09-03T01:10:17.432Z,14.19
2022-09-03T01:18:04.795Z,14.14
2022-09-03T01:25:52.594Z,14.08
2022-09-03T01:33:35.128Z,13.94
2022-09-03T01:41:39.715Z,13.84
2022-09-03T01:49:24.920Z,13.64
2022-09-03T01:57:35.873Z,13.66
2022-09-03T02:05:15.820Z,13.66
2022-09-03T02:12:54.967Z,13.72
2022-09-03T02:20:31.041Z,13.69
2022-09-03T02:28:07.473Z,13.62
2022-09-03T02:35:52.458Z,13.52
2022-09-03T02:43:32.442Z,13.32
2022-09-03T02:51:13.830Z,13.34
2022-09-03T02:58:48.538Z,13.18
2022-09-03T03:06:23.823Z,13.10
2022-09-03T03:13:57.806Z,13.07
2022-09-03T03:21:32.966Z,12.94
2022-09-03T03:29:06.534Z,12.85
2022-09-03T03:36:41.790Z,12.75
2022-09-03T03:44:15.649Z,12.79
2022-09-03T03:51:50.839Z,12.74
2022-09-03T03:59:26.564Z,12.68
2022-09-03T04:07:01.850Z,12.63
2022-09-03T04:14:36.618Z,12.58
2022-09-03T04:22:12.182Z,12.67
2022-09-03T04:29:46.058Z,12.65
2022-09-03T04:37:21.325Z,12.62
2022-09-03T04:44:55.257Z,12.66
2022-09-03T04:52:31.711Z,12.63
2022-09-03T05:00:11.484Z,12.68
2022-09-03T05:07:47.031Z,12.70
2022-09-03T05:15:21.118Z,12.75
2022-09-03T05:22:56.728Z,12.82
2022-09-03T05:30:30.623Z,12.86
2022-09-03T05:38:07.435Z,12.92
2022-09-03T05:45:42.171Z,12.99
2022-09-03T05:53:18.416Z,13.04
2022-09-03T06:00:52.460Z,13.17
2022-09-03T06:08:27.663Z,13.28
2022-09-03T06:16:03.681Z,13.39
2022-09-03T06:23:38.858Z,13.52
2022-09-03T06:31:17.538Z,13.68
2022-09-03T06:38:55.445Z,13.83
2022-09-03T06:46:29.327Z,14.00
2022-09-03T06:54:06.247Z,14.17
2022-09-03T07:01:43.987Z,14.32
2022-09-03T07:09:20.112Z,14.34
2022-09-03T07:16:53.945Z,14.49
2022-09-03T07:24:29.191Z,14.58
2022-09-03T07:32:03.132Z,14.72
2022-09-03T07:39:38.501Z,14.91
2022-09-03T07:47:13.120Z,15.06
2022-09-03T07:54:48.424Z,15.21
2022-09-03T08:02:22.271Z,15.45
2022-09-03T08:09:57.987Z,15.65
2022-09-03T08:17:31.852Z,15.89
2022-09-03T08:25:07.981Z,16.37
2022-09-03T08:32:47.488Z,17.45
2022-09-03T08:40:24.235Z,18.25
2022-09-03T08:48:06.588Z,19.08
2022-09-03T08:55:48.588Z,19.36
2022-09-03T09:03:43.273Z,20.08
2022-09-03T09:11:31.048Z,20.65
2022-09-03T09:19:21.033Z,20.82
2022-09-03T09:27:00.095Z,20.96
2022-09-03T09:34:36.989Z,21.50
2022-09-03T09:42:13.268Z,21.42
2022-09-03T09:49:54.363Z,21.77
2022-09-03T09:57:29.563Z,21.86
2022-09-03T10:05:14.793Z,22.01
2022-09-03T10:12:59.551Z,21.97
2022-09-03T10:20:41.010Z,21.54
2022-09-03T10:28:16.187Z,21.50
2022-09-03T10:35:56.011Z,21.15
2022-09-03T10:43:47.926Z,20.86
2022-09-03T10:51:27.630Z,20.83
2022-09-03T10:59:29.268Z,20.75
2022-09-03T11:07:05.953Z,21.02
2022-09-03T11:14:45.801Z,21.13
2022-09-03T11:22:23.372Z,21.38
2022-09-03T11:30:02.533Z,21.21
2022-09-03T11:37:53.560Z,21.13
2022-09-03T11:45:38.035Z,21.03
2022-09-03T11:53:28.194Z,21.01
2022-09-03T12:01:10.355Z,21.07
2022-09-03T12:09:03.706Z,21.06
2022-09-03T12:17:05.758Z,21.05
2022-09-03T12:24:39.530Z,20.94
2022-09-03T12:32:16.122Z,21.29
2022-09-03T12:40:11.285Z,21.61
2022-09-03T12:47:47.344Z,21.51
2022-09-03T12:55:30.716Z,21.49
2022-09-03T13:03:09.744Z,21.61
2022-09-03T13:10:44.965Z,21.93
2022-09-03T13:18:28.613Z,21.69
2022-09-03T13:26:11.615Z,21.60
2022-09-03T13:33:52.669Z,21.43
2022-09-03T13:41:37.672Z,21.42
2022-09-03T13:49:45.588Z,21.36
2022-09-03T13:57:29.991Z,21.40
2022-09-03T14:05:11.092Z,21.27
2022-09-03T14:12:48.531Z,21.43
2022-09-03T14:20:27.298Z,21.45
2022-09-03T14:28:16.156Z,21.89
2022-09-03T14:36:04.230Z,21.89
2022-09-03T14:43:58.454Z,21.62
2022-09-03T14:51:45.940Z,21.75
2022-09-03T14:59:35.945Z,22.03
2022-09-03T15:07:25.324Z,22.00
2022-09-03T15:15:02.136Z,22.05
2022-09-03T15:23:05.812Z,22.09
2022-09-03T15:30:45.665Z,22.04
2022-09-03T15:38:29.347Z,21.78
2022-09-03T15:46:10.832Z,21.83
2022-09-03T15:53:54.908Z,21.88
2022-09-03T16:01:36.024Z,21.84
2022-09-03T16:09:24.347Z,21.87
2022-09-03T16:17:03.885Z,21.94
2022-09-03T16:24:49.980Z,21.93
2022-09-03T16:32:33.493Z,21.83
2022-09-03T16:40:24.438Z,21.60
2022-09-03T16:48:17.833Z,21.32
2022-09-03T16:56:14.033Z,21.18
2022-09-03T17:04:23.929Z,21.01
2022-09-03T17:12:09.839Z,20.93
2022-09-03T17:19:53.275Z,20.79
2022-09-03T17:27:41.209Z,20.64
2022-09-03T17:35:20.358Z,20.49
2022-09-03T17:43:05.798Z,20.33
2022-09-03T17:50:45.908Z,20.20
2022-09-03T17:58:27.386Z,20.10
2022-09-03T18:06:05.733Z,19.98
2022-09-03T18:14:02.267Z,19.93
2022-09-03T18:21:57.507Z,19.87
2022-09-03T18:29:58.512Z,19.79
2022-09-03T18:37:50.446Z,19.71
2022-09-03T18:46:50.862Z,19.64
2022-09-03T18:54:16.285Z,19.54
2022-09-03T19:02:13.030Z,19.42
2022-09-03T19:10:12.147Z,19.33
2022-09-03T19:18:36.678Z,19.23
2022-09-03T19:26:39.604Z,19.14
2022-09-03T19:34:48.280Z,19.08
2022-09-03T19:43:01.799Z,19.01
2022-09-03T19:51:00.576Z,18.94
2022-09-03T19:58:55.980Z,18.93
2022-09-03T20:06:53.028Z,18.87
2022-09-03T20:14:27.034Z,18.83
2022-09-03T20:22:14.226Z,18.84
2022-09-03T20:30:02.875Z,18.85
2022-09-03T20:37:42.775Z,18.82
2022-09-03T20:45:20.290Z,18.75
2022-09-03T20:53:07.742Z,18.69
2022-09-03T21:00:52.084Z,18.61
2022-09-03T21:08:48.885Z,18.53
2022-09-03T21:16:37.554Z,18.46
2022-09-03T21:24:18.314Z,18.42
2022-09-03T21:32:00.278Z,18.38
2022-09-03T21:39:44.316Z,18.33
2022-09-03T21:47:21.270Z,18.26
2022-09-03T21:54:56.508Z,18.24
2022-09-03T22:02:32.044Z,18.20
2022-09-03T22:10:13.436Z,18.13
2022-09-03T22:17:56.964Z,17.99
2022-09-03T22:25:40.516Z,17.88
2022-09-03T22:33:21.916Z,17.84
2022-09-03T22:41:06.632Z,17.69
2022-09-03T22:49:06.624Z,17.50
2022-09-03T22:56:42.955Z,17.39
2022-09-03T23:04:23.750Z,17.16
2022-09-03T23:12:05.000Z,17.10
2022-09-03T23:19:43.798Z,17.01
2022-09-03T23:27:25.310Z,16.89
2022-09-03T23:35:00.355Z,16.83
2022-09-03T23:42:51.219Z,16.72
2022-09-03T23:50:40.799Z,16.64
2022-09-03T23:58:26.161Z,16.58
